Time;durP1;ratioP1;P1;durP2;ratioP2;P2;SDS_P1;SDS_P2;PMS_P1;PMS_P2;Temp;Humidity;BMP_temperature;BMP_pressure;BME280_temperature;BME280_humidity;BME280_pressure;Samples;Min_cycle;Max_cycle;Signal;HPM_P1;HPM_P2
2022/03/15 00:00:30;;;;;;;86.85;49.22;;;2.30;96.60;;;;;;4968701;28;20496;-75
2022/03/15 00:02:57;;;;;;;96.05;55.22;;;2.20;98.00;;;;;;4973553;28;20027;-76
2022/03/15 00:05:23;;;;;;;98.28;55.30;;;2.20;99.10;;;;;;4974351;28;20519;-76
2022/03/15 00:07:50;;;;;;;113.38;63.05;;;2.10;98.90;;;;;;4974241;28;20046;-73
2022/03/15 00:10:18;;;;;;;106.35;62.47;;;1.90;99.00;;;;;;4982688;28;20380;-74
2022/03/15 00:12:45;;;;;;;126.38;73.38;;;1.90;99.30;;;;;;4993273;28;20022;-74
2022/03/15 00:15:12;;;;;;;121.78;72.78;;;1.90;99.20;;;;;;4979954;28;20037;-73
2022/03/15 00:17:39;;;;;;;122.43;73.68;;;1.80;98.80;;;;;;4971328;28;20481;-74
2022/03/15 00:20:07;;;;;;;127.75;74.68;;;1.90;99.50;;;;;;4957008;29;20547;-75
2022/03/15 00:22:37;;;;;;;123.70;72.07;;;1.90;99.60;;;;;;4954325;29;20043;-75
2022/03/15 00:25:07;;;;;;;129.52;73.50;;;1.80;99.00;;;;;;4954514;29;20058;-74
2022/03/15 00:30:59;;;;;;;120.05;71.82;;;1.80;99.90;;;;;;4988151;28;20073;-74
2022/03/15 00:33:27;;;;;;;126.30;73.00;;;1.80;99.90;;;;;;5000069;28;20030;-74
2022/03/15 00:35:53;;;;;;;124.45;69.90;;;1.80;99.90;;;;;;4992213;28;20018;-73
2022/03/15 00:38:20;;;;;;;120.55;72.25;;;1.80;99.90;;;;;;4992495;28;20026;-73
2022/03/15 00:40:46;;;;;;;291.33;143.27;;;1.70;99.90;;;;;;5008288;28;20034;-73
2022/03/15 00:43:15;;;;;;;265.27;126.80;;;1.70;99.90;;;;;;5011967;28;20442;-72
2022/03/15 00:45:40;;;;;;;182.15;92.75;;;1.70;99.90;;;;;;5011781;28;20029;-72
2022/03/15 00:48:07;;;;;;;137.75;72.43;;;1.70;99.90;;;;;;4990617;28;20511;-71
2022/03/15 00:50:36;;;;;;;84.40;48.22;;;1.70;99.90;;;;;;4993453;28;20048;-73
2022/03/15 00:53:03;;;;;;;77.28;42.15;;;1.70;99.90;;;;;;4990797;28;20069;-73
2022/03/15 00:55:29;;;;;;;108.80;60.05;;;1.70;99.90;;;;;;5011456;28;20387;-73
2022/03/15 00:57:55;;;;;;;62.42;36.72;;;1.70;99.90;;;;;;5011620;28;20018;-75
2022/03/15 01:00:22;;;;;;;61.53;36.20;;;1.70;99.90;;;;;;4998818;28;20038;-75
2022/03/15 01:02:49;;;;;;;76.85;42.72;;;1.70;99.90;;;;;;4992078;28;20042;-72
2022/03/15 01:05:16;;;;;;;105.95;58.80;;;1.70;99.90;;;;;;4993680;28;20113;-73
2022/03/15 01:07:42;;;;;;;62.55;36.97;;;1.70;99.90;;;;;;4974409;28;20030;-73
2022/03/15 01:10:09;;;;;;;114.40;76.50;;;1.70;99.90;;;;;;4975235;28;20030;-74
2022/03/15 01:12:35;;;;;;;114.18;69.90;;;1.70;99.90;;;;;;4992197;28;20066;-73
2022/03/15 01:15:06;;;;;;;60.53;31.75;;;1.70;99.90;;;;;;4973959;28;20444;-73
2022/03/15 01:17:34;;;;;;;62.75;36.97;;;1.70;99.90;;;;;;4974690;28;20037;-74
2022/03/15 01:20:03;;;;;;;69.43;40.25;;;1.60;99.90;;;;;;4974575;28;20081;-74
2022/03/15 01:22:29;;;;;;;66.65;40.08;;;1.60;99.90;;;;;;4974668;28;20034;-71
2022/03/15 01:24:55;;;;;;;80.03;45.75;;;1.60;99.90;;;;;;4974089;28;20093;-76
2022/03/15 01:27:21;;;;;;;66.57;39.47;;;1.60;99.90;;;;;;4972961;28;22107;-72
2022/03/15 01:29:47;;;;;;;103.45;57.72;;;1.60;99.90;;;;;;4991086;28;20057;-73
2022/03/15 01:32:14;;;;;;;68.78;40.42;;;1.50;99.90;;;;;;4974331;28;20088;-73
2022/03/15 01:34:40;;;;;;;64.88;38.17;;;1.40;99.90;;;;;;4992529;28;20496;-73
2022/03/15 01:37:06;;;;;;;59.17;35.25;;;1.40;99.90;;;;;;4982318;28;20043;-72
2022/03/15 01:39:35;;;;;;;51.55;31.48;;;1.40;99.90;;;;;;4972785;28;20106;-72
2022/03/15 01:42:01;;;;;;;77.03;42.13;;;1.30;99.90;;;;;;4972307;28;20504;-73
2022/03/15 01:44:33;;;;;;;124.70;71.10;;;1.20;99.90;;;;;;4955178;28;20077;-73
2022/03/15 01:47:00;;;;;;;81.10;46.42;;;1.20;99.90;;;;;;4979882;28;20037;-73
2022/03/15 01:49:29;;;;;;;71.57;40.10;;;1.20;99.90;;;;;;4974655;28;20022;-74
2022/03/15 01:51:55;;;;;;;77.05;47.60;;;1.30;99.90;;;;;;4991739;28;20041;-76
2022/03/15 01:54:22;;;;;;;89.20;49.97;;;1.20;99.90;;;;;;4991465;28;20110;-76
2022/03/15 01:56:49;;;;;;;87.07;52.85;;;1.20;99.90;;;;;;4984065;28;20389;-77
2022/03/15 01:59:16;;;;;;;108.63;68.50;;;1.20;99.90;;;;;;4954702;28;20042;-75
2022/03/15 02:01:44;;;;;;;95.78;58.65;;;1.20;99.90;;;;;;4958542;28;20061;-76
2022/03/15 02:04:11;;;;;;;74.40;45.47;;;1.10;99.90;;;;;;4988179;28;20037;-74
2022/03/15 02:06:39;;;;;;;86.22;49.35;;;1.10;99.90;;;;;;4995439;28;20380;-75
2022/03/15 02:09:14;;;;;;;86.15;49.33;;;1.00;99.90;;;;;;4994804;28;20033;-74
2022/03/15 02:11:43;;;;;;;81.55;48.10;;;1.00;99.90;;;;;;4995375;28;20105;-78
2022/03/15 02:14:09;;;;;;;65.00;39.42;;;0.90;99.90;;;;;;4983013;28;20037;-74
2022/03/15 02:16:36;;;;;;;73.03;40.75;;;0.90;99.90;;;;;;4975530;28;20027;-77
2022/03/15 02:19:04;;;;;;;78.03;45.38;;;1.00;99.90;;;;;;4958787;28;20026;-76
2022/03/15 02:21:30;;;;;;;62.15;35.35;;;1.00;99.90;;;;;;4958330;28;20043;-75
2022/03/15 02:23:56;;;;;;;54.85;36.22;;;0.80;99.90;;;;;;4988429;28;20018;-73
2022/03/15 02:26:23;;;;;;;59.67;35.13;;;0.80;99.90;;;;;;4993158;28;20487;-77
2022/03/15 02:28:49;;;;;;;58.05;34.15;;;0.70;99.90;;;;;;4994808;28;20083;-72
2022/03/15 02:31:15;;;;;;;59.13;33.90;;;0.60;99.90;;;;;;4993132;28;20065;-73
2022/03/15 02:33:41;;;;;;;54.63;33.00;;;0.60;99.90;;;;;;4975786;28;20043;-74
2022/03/15 02:36:06;;;;;;;55.85;32.22;;;0.60;99.90;;;;;;4975607;28;20031;-72
2022/03/15 02:38:32;;;;;;;53.63;32.17;;;0.70;99.90;;;;;;4975289;28;20023;-72
2022/03/15 02:40:58;;;;;;;60.30;33.25;;;0.70;99.90;;;;;;4975180;28;20512;-73
2022/03/15 02:43:27;;;;;;;56.65;35.25;;;0.70;99.90;;;;;;4993614;28;20030;-73
2022/03/15 02:45:53;;;;;;;80.18;60.25;;;0.70;99.90;;;;;;4994636;28;20443;-74
2022/03/15 02:48:19;;;;;;;59.47;39.28;;;0.70;99.90;;;;;;4994553;28;20034;-74
2022/03/15 02:50:45;;;;;;;56.92;31.75;;;0.60;99.90;;;;;;4994598;28;20037;-73
2022/03/15 02:53:11;;;;;;;54.15;30.58;;;0.60;99.90;;;;;;4977197;28;20469;-74
2022/03/15 02:55:37;;;;;;;54.42;31.77;;;0.70;99.90;;;;;;4975273;28;20042;-72
2022/03/15 02:58:03;;;;;;;58.95;32.75;;;0.70;99.90;;;;;;4975028;28;20019;-75
2022/03/15 03:00:29;;;;;;;54.38;35.55;;;0.70;99.90;;;;;;4974855;28;20571;-74
2022/03/15 03:02:58;;;;;;;62.35;34.70;;;0.70;99.90;;;;;;4975783;28;20043;-75
2022/03/15 03:05:23;;;;;;;66.97;43.35;;;0.60;99.90;;;;;;4975039;28;20027;-73
2022/03/15 03:07:49;;;;;;;66.45;40.58;;;0.60;99.90;;;;;;4974710;28;20101;-73
2022/03/15 03:10:16;;;;;;;62.53;37.72;;;0.60;99.90;;;;;;4974705;28;20027;-74
2022/03/15 03:12:46;;;;;;;55.15;33.58;;;0.60;99.90;;;;;;4974963;28;20511;-77
2022/03/15 03:15:13;;;;;;;65.80;41.03;;;0.60;99.90;;;;;;4996689;28;20101;-73
2022/03/15 03:17:42;;;;;;;60.58;36.20;;;0.70;99.90;;;;;;4992678;28;20030;-74
2022/03/15 03:20:13;;;;;;;55.00;33.78;;;0.70;99.90;;;;;;4980965;28;20023;-74
2022/03/15 03:22:41;;;;;;;69.07;40.72;;;0.50;99.90;;;;;;4974583;28;20118;-77
2022/03/15 03:25:09;;;;;;;58.17;36.97;;;0.60;99.90;;;;;;4975998;28;20033;-74
2022/03/15 03:27:35;;;;;;;84.97;45.72;;;0.60;99.90;;;;;;4994020;28;20476;-72
2022/03/15 03:30:02;;;;;;;117.65;63.80;;;0.60;99.90;;;;;;4993178;28;20051;-74
2022/03/15 03:32:29;;;;;;;87.25;48.42;;;0.50;99.90;;;;;;4976178;28;20037;-74
2022/03/15 03:34:56;;;;;;;81.32;45.63;;;0.60;99.90;;;;;;4976308;28;20117;-74
2022/03/15 03:37:22;;;;;;;71.60;38.75;;;0.60;99.90;;;;;;4993887;28;20026;-75
2022/03/15 03:39:49;;;;;;;55.00;34.33;;;0.60;99.90;;;;;;4994620;28;20087;-74
2022/03/15 03:42:15;;;;;;;56.03;33.75;;;0.70;99.90;;;;;;4993433;28;20037;-75
2022/03/15 03:44:42;;;;;;;54.83;34.33;;;0.60;99.90;;;;;;4992485;28;20030;-75
2022/03/15 03:47:08;;;;;;;52.20;32.13;;;0.60;99.90;;;;;;4973987;28;20134;-74
2022/03/15 03:49:35;;;;;;;52.65;29.90;;;0.60;99.90;;;;;;4974101;28;20058;-76
2022/03/15 03:52:02;;;;;;;51.97;29.10;;;0.60;99.90;;;;;;4956825;28;20049;-74
2022/03/15 03:54:29;;;;;;;51.65;30.42;;;0.70;99.90;;;;;;4975517;28;20023;-75
2022/03/15 03:56:55;;;;;;;52.85;30.65;;;0.60;99.90;;;;;;4978775;28;20044;-74
2022/03/15 03:59:21;;;;;;;56.08;32.00;;;0.60;99.90;;;;;;4973447;28;20045;-74
2022/03/15 04:01:48;;;;;;;59.55;35.92;;;0.60;99.90;;;;;;4974443;28;20046;-73
2022/03/15 04:04:14;;;;;;;61.03;38.28;;;0.60;99.90;;;;;;4988239;28;20082;-74
2022/03/15 04:06:40;;;;;;;60.20;36.78;;;0.70;99.90;;;;;;4992964;28;20038;-74
2022/03/15 04:09:06;;;;;;;57.47;33.35;;;0.70;99.90;;;;;;4993139;28;20018;-75
2022/03/15 04:11:32;;;;;;;72.00;38.00;;;0.70;99.90;;;;;;4976696;28;20031;-73
2022/03/15 04:14:03;;;;;;;51.70;33.10;;;0.70;99.90;;;;;;4990943;28;20112;-74
2022/03/15 04:16:30;;;;;;;73.45;35.42;;;0.80;99.90;;;;;;4974973;28;20042;-72
2022/03/15 04:18:56;;;;;;;58.75;35.42;;;0.80;99.90;;;;;;4954026;29;20035;-74
2022/03/15 04:21:25;;;;;;;86.22;51.63;;;0.80;99.90;;;;;;4961282;28;20386;-74
2022/03/15 04:23:53;;;;;;;116.95;62.00;;;0.70;99.90;;;;;;4985565;28;20038;-74
2022/03/15 04:26:20;;;;;;;119.15;72.18;;;0.70;99.90;;;;;;4992803;28;20030;-74
2022/03/15 04:28:46;;;;;;;115.40;64.53;;;0.60;99.90;;;;;;4978383;28;20444;-73
2022/03/15 04:31:12;;;;;;;100.20;57.58;;;0.70;99.90;;;;;;4981236;28;20429;-74
2022/03/15 04:33:38;;;;;;;124.80;66.57;;;0.60;99.90;;;;;;4973068;28;20034;-73
2022/03/15 04:36:04;;;;;;;117.05;68.47;;;0.60;99.90;;;;;;4972972;28;20556;-75
2022/03/15 04:38:30;;;;;;;129.57;87.32;;;0.60;99.90;;;;;;4985647;28;20037;-74
2022/03/15 04:40:58;;;;;;;134.13;79.20;;;0.50;99.90;;;;;;4991883;28;20038;-71
2022/03/15 04:43:24;;;;;;;116.15;68.30;;;0.60;99.90;;;;;;4992126;28;20109;-73
2022/03/15 04:45:51;;;;;;;95.18;57.53;;;0.60;99.90;;;;;;4992225;28;20464;-72
2022/03/15 04:48:21;;;;;;;111.07;71.43;;;0.70;99.90;;;;;;4966750;28;20023;-73
2022/03/15 04:50:47;;;;;;;130.63;79.25;;;0.70;99.90;;;;;;4957100;28;20034;-73
2022/03/15 04:53:14;;;;;;;137.00;77.57;;;0.70;99.90;;;;;;4972996;28;20077;-75
2022/03/15 04:55:40;;;;;;;116.53;61.67;;;0.70;99.90;;;;;;4973969;28;20468;-75
2022/03/15 04:58:06;;;;;;;90.50;57.35;;;0.70;99.90;;;;;;4973851;28;20085;-74
2022/03/15 05:00:32;;;;;;;98.93;64.03;;;0.70;99.90;;;;;;4973122;28;21902;-73
2022/03/15 05:03:02;;;;;;;129.02;78.53;;;0.70;99.90;;;;;;4982303;28;20381;-72
2022/03/15 05:05:27;;;;;;;151.30;81.90;;;0.70;99.90;;;;;;4972103;28;20031;-72
2022/03/15 05:07:54;;;;;;;152.75;84.85;;;0.80;99.90;;;;;;4971129;28;20049;-73
2022/03/15 05:13:05;;;;;;;113.18;62.95;;;0.90;99.90;;;;;;4972430;28;20026;-72
2022/03/15 05:15:31;;;;;;;109.40;61.22;;;1.00;99.90;;;;;;4970028;28;20525;-70
2022/03/15 05:17:57;;;;;;;96.53;60.83;;;1.10;99.90;;;;;;4971186;28;20022;-72
2022/03/15 05:20:24;;;;;;;84.80;46.63;;;1.20;99.90;;;;;;4967617;28;20718;-73
2022/03/15 05:22:50;;;;;;;91.00;52.03;;;1.30;99.90;;;;;;4968804;28;20027;-73
2022/03/15 05:25:16;;;;;;;107.63;63.10;;;1.40;99.90;;;;;;4974104;28;20022;-72
2022/03/15 05:27:43;;;;;;;109.85;60.95;;;1.60;99.90;;;;;;4972141;28;20030;-72
2022/03/15 05:30:10;;;;;;;118.25;60.22;;;1.80;99.90;;;;;;4971256;28;20049;-74
2022/03/15 05:32:36;;;;;;;93.45;51.03;;;2.00;99.90;;;;;;4972204;28;20038;-71
2022/03/15 05:35:30;;;;;;;100.85;56.47;;;2.30;99.90;;;;;;4966222;28;20023;-73
2022/03/15 05:38:01;;;;;;;98.68;57.42;;;2.70;99.90;;;;;;4967201;28;20548;-72
2022/03/15 05:40:31;;;;;;;127.35;70.88;;;2.90;98.90;;;;;;4942356;28;20038;-71
2022/03/15 05:43:07;;;;;;;109.00;57.65;;;3.00;98.80;;;;;;4975871;28;20037;-74
2022/03/15 05:46:06;;;;;;;98.70;48.00;;;3.00;97.00;;;;;;4958569;28;20031;-72
2022/03/15 05:48:38;;;;;;;56.60;35.00;;;3.30;96.70;;;;;;4953869;28;20389;-73
2022/03/15 05:54:08;;;;;;;56.40;30.23;;;3.30;96.50;;;;;;4973570;28;20434;-74
2022/03/15 05:56:34;;;;;;;44.30;26.73;;;3.30;97.30;;;;;;4954830;28;20074;-73
2022/03/15 05:59:00;;;;;;;55.45;31.27;;;3.30;97.60;;;;;;4954602;28;20463;-72
2022/03/15 06:01:26;;;;;;;59.15;32.40;;;3.30;98.30;;;;;;4954687;28;20035;-72
2022/03/15 06:03:53;;;;;;;75.10;39.35;;;3.20;99.00;;;;;;4954606;28;20544;-71
2022/03/15 06:07:01;;;;;;;70.93;40.42;;;3.20;99.60;;;;;;4974872;28;20034;-72
2022/03/15 06:09:45;;;;;;;70.95;40.70;;;3.30;99.30;;;;;;4957463;28;20097;-73
2022/03/15 06:12:20;;;;;;;68.07;40.53;;;3.30;98.50;;;;;;4958062;28;20031;-73
2022/03/15 06:14:49;;;;;;;105.75;62.58;;;3.30;98.80;;;;;;4957451;28;20118;-73
2022/03/15 06:17:15;;;;;;;100.82;54.58;;;3.40;98.70;;;;;;4959529;28;20069;-73
2022/03/15 06:19:41;;;;;;;87.95;50.80;;;3.40;98.40;;;;;;4960683;28;20026;-72
2022/03/15 06:22:06;;;;;;;87.82;49.33;;;3.40;98.70;;;;;;4955497;28;20031;-70
2022/03/15 06:24:32;;;;;;;75.25;45.60;;;3.40;99.60;;;;;;4954485;28;20023;-73
2022/03/15 06:26:58;;;;;;;78.35;46.42;;;3.40;99.90;;;;;;4954390;28;20070;-73
2022/03/15 06:29:27;;;;;;;68.68;44.90;;;3.50;99.90;;;;;;4955888;28;20059;-73
2022/03/15 06:32:23;;;;;;;59.33;36.22;;;3.50;99.90;;;;;;4955550;29;20079;-72
2022/03/15 06:34:49;;;;;;;53.92;32.97;;;3.60;99.00;;;;;;4955503;29;20054;-72
2022/03/15 06:37:15;;;;;;;64.18;35.72;;;3.50;98.60;;;;;;4955833;29;20428;-73
2022/03/15 06:39:57;;;;;;;83.05;41.00;;;3.60;96.90;;;;;;4960164;28;20031;-73
2022/03/15 06:42:26;;;;;;;101.32;49.88;;;3.70;96.80;;;;;;4957706;28;20043;-72
2022/03/15 06:44:52;;;;;;;83.18;38.67;;;3.60;98.60;;;;;;4956847;28;20097;-73
2022/03/15 06:47:27;;;;;;;71.25;36.08;;;3.50;99.90;;;;;;4958094;28;20097;-72
2022/03/15 06:49:55;;;;;;;72.75;39.92;;;3.50;99.90;;;;;;4957671;28;20028;-71
2022/03/15 06:53:03;;;;;;;60.67;36.42;;;3.60;99.90;;;;;;4964539;28;20160;-73
2022/03/15 06:55:39;;;;;;;56.95;33.90;;;3.80;97.20;;;;;;4954850;29;20075;-69
2022/03/15 06:58:05;;;;;;;52.08;33.20;;;3.90;96.20;;;;;;4938084;29;20039;-72
2022/03/15 07:00:31;;;;;;;52.20;29.90;;;3.80;95.20;;;;;;4973124;28;20477;-71
2022/03/15 07:02:57;;;;;;;51.08;31.13;;;4.00;95.60;;;;;;4972632;28;20047;-72
2022/03/15 07:05:44;;;;;;;54.05;32.22;;;4.10;94.90;;;;;;4974435;28;20030;-72
2022/03/15 07:08:21;;;;;;;62.13;35.60;;;4.10;94.20;;;;;;4941689;28;20121;-70
2022/03/15 07:10:47;;;;;;;58.35;32.65;;;4.30;94.60;;;;;;4974127;28;20110;-68
2022/03/15 07:13:13;;;;;;;55.30;33.90;;;4.50;94.40;;;;;;4974384;28;20022;-70
2022/03/15 07:15:39;;;;;;;58.72;34.40;;;4.70;94.00;;;;;;4974119;28;20034;-70
2022/03/15 07:18:05;;;;;;;57.10;33.95;;;5.10;94.10;;;;;;4974122;28;20019;-71
2022/03/15 07:20:41;;;;;;;55.17;35.10;;;5.50;93.00;;;;;;4958527;28;20549;-73
2022/03/15 07:23:17;;;;;;;66.82;38.03;;;5.70;92.90;;;;;;4954751;28;20372;-73
2022/03/15 07:25:49;;;;;;;69.18;41.33;;;6.00;92.00;;;;;;4953288;28;20032;-73
2022/03/15 07:28:15;;;;;;;66.35;40.20;;;6.30;91.20;;;;;;4948446;28;20069;-73
2022/03/15 07:30:40;;;;;;;64.60;39.70;;;6.60;90.60;;;;;;4952801;28;20127;-74
2022/03/15 07:33:06;;;;;;;61.33;37.90;;;6.70;90.50;;;;;;4966102;28;20425;-73
2022/03/15 07:35:34;;;;;;;62.25;38.20;;;6.80;89.60;;;;;;4981115;28;20030;-73
2022/03/15 07:38:00;;;;;;;55.05;37.28;;;7.00;90.20;;;;;;4979630;28;20058;-68
2022/03/15 07:40:39;;;;;;;55.97;35.60;;;7.30;89.60;;;;;;4985224;28;20068;-74
2022/03/15 07:43:05;;;;;;;54.35;32.38;;;7.40;85.70;;;;;;4965022;28;20034;-73
2022/03/15 07:45:31;;;;;;;60.80;36.60;;;7.60;85.40;;;;;;4982208;28;20037;-72
2022/03/15 07:47:57;;;;;;;57.00;33.33;;;7.90;83.70;;;;;;4977756;28;20038;-73
2022/03/15 07:50:25;;;;;;;50.10;30.85;;;7.90;81.80;;;;;;4987691;28;20393;-72
2022/03/15 07:52:52;;;;;;;54.38;32.63;;;8.00;80.60;;;;;;4974977;28;20034;-71
2022/03/15 07:55:24;;;;;;;51.30;31.92;;;8.30;82.50;;;;;;4966230;28;20022;-70
2022/03/15 07:57:50;;;;;;;46.38;31.52;;;8.50;79.90;;;;;;4948493;28;20036;-72
2022/03/15 08:00:17;;;;;;;56.72;32.38;;;8.60;79.30;;;;;;4969637;28;20031;-74
2022/03/15 08:02:43;;;;;;;54.58;35.47;;;8.80;81.00;;;;;;4959232;28;20700;-71
2022/03/15 08:05:09;;;;;;;47.75;30.50;;;8.90;78.40;;;;;;4974852;28;20042;-68
2022/03/15 08:07:36;;;;;;;50.53;31.90;;;8.90;75.90;;;;;;4971750;28;20054;-70
2022/03/15 08:10:08;;;;;;;45.78;27.73;;;8.90;75.80;;;;;;4963168;28;20042;-74
2022/03/15 08:12:35;;;;;;;48.28;30.30;;;8.90;74.80;;;;;;4954478;28;20032;-74
2022/03/15 08:15:04;;;;;;;44.60;30.20;;;8.90;75.00;;;;;;4967674;28;20042;-73
2022/03/15 08:17:33;;;;;;;45.00;28.40;;;9.00;75.00;;;;;;4953709;28;20456;-76
2022/03/15 08:20:00;;;;;;;42.03;28.20;;;9.10;74.90;;;;;;4962196;28;20039;-72
2022/03/15 08:22:34;;;;;;;42.72;26.98;;;9.20;74.10;;;;;;4970961;28;20453;-74
2022/03/15 08:25:06;;;;;;;41.35;26.15;;;9.50;74.60;;;;;;4955702;28;20362;-72
2022/03/15 08:27:34;;;;;;;42.15;25.85;;;9.30;73.90;;;;;;4963480;28;20492;-72
2022/03/15 08:30:00;;;;;;;45.90;26.98;;;9.50;73.10;;;;;;4972330;28;20042;-72
2022/03/15 08:32:26;;;;;;;58.80;27.52;;;9.70;73.10;;;;;;4972329;28;20027;-74
2022/03/15 08:34:54;;;;;;;42.95;26.90;;;9.90;71.20;;;;;;4972115;28;20043;-69
2022/03/15 08:37:20;;;;;;;41.55;26.27;;;9.90;71.10;;;;;;4970879;28;20117;-73
2022/03/15 08:39:50;;;;;;;35.65;22.60;;;10.10;71.80;;;;;;4960567;28;20112;-75
2022/03/15 08:42:25;;;;;;;33.03;19.95;;;10.30;70.10;;;;;;4966637;28;21488;-73
2022/03/15 08:44:51;;;;;;;38.17;24.25;;;10.60;68.80;;;;;;4965776;28;20078;-70
2022/03/15 08:47:28;;;;;;;38.63;24.35;;;10.80;69.50;;;;;;4981174;28;20361;-73
2022/03/15 08:49:55;;;;;;;39.03;25.63;;;11.00;69.20;;;;;;4961330;28;20046;-73
2022/03/15 08:52:21;;;;;;;40.72;24.98;;;11.10;68.90;;;;;;4981696;28;20030;-75
2022/03/15 08:54:47;;;;;;;36.90;23.70;;;11.20;66.80;;;;;;4977968;28;20052;-73
2022/03/15 08:57:14;;;;;;;30.83;20.08;;;11.30;67.70;;;;;;4972854;28;20619;-70
2022/03/15 08:59:40;;;;;;;31.63;21.20;;;11.50;66.40;;;;;;4971400;28;20031;-74
2022/03/15 09:02:17;;;;;;;40.83;26.05;;;11.50;65.70;;;;;;4961778;28;20047;-73
2022/03/15 09:04:46;;;;;;;32.03;21.55;;;11.30;64.90;;;;;;4948415;28;20070;-76
2022/03/15 09:07:18;;;;;;;40.17;22.85;;;11.70;68.40;;;;;;4971409;28;20027;-73
2022/03/15 09:09:44;;;;;;;38.13;24.58;;;11.70;66.20;;;;;;4948633;28;20034;-74
2022/03/15 09:12:10;;;;;;;35.15;22.48;;;11.70;67.30;;;;;;4984252;28;20077;-74
2022/03/15 09:14:36;;;;;;;38.45;23.23;;;12.00;65.70;;;;;;4956470;28;20042;-76
2022/03/15 09:17:02;;;;;;;45.63;27.60;;;12.10;67.40;;;;;;4959450;28;20023;-76
2022/03/15 09:19:28;;;;;;;39.05;24.58;;;12.20;66.80;;;;;;4966190;28;20082;-74
2022/03/15 09:21:54;;;;;;;48.58;26.92;;;12.30;64.00;;;;;;4958209;28;20038;-77
2022/03/15 09:24:19;;;;;;;45.17;28.75;;;12.40;64.00;;;;;;4954976;28;20028;-73
2022/03/15 09:26:45;;;;;;;43.15;28.52;;;12.60;62.00;;;;;;4954747;28;20027;-78
2022/03/15 09:29:12;;;;;;;47.25;28.75;;;12.70;62.40;;;;;;4953953;28;20534;-73
2022/03/15 09:31:38;;;;;;;60.45;36.85;;;12.50;59.70;;;;;;4959431;28;20031;-75
2022/03/15 09:34:07;;;;;;;85.30;57.97;;;12.60;62.60;;;;;;4968484;28;20856;-75
2022/03/15 09:36:34;;;;;;;100.93;68.20;;;12.50;60.20;;;;;;4946393;28;20134;-77
2022/03/15 09:39:00;;;;;;;116.70;69.18;;;12.70;60.30;;;;;;4953399;28;20027;-74
2022/03/15 09:41:27;;;;;;;100.88;68.15;;;12.90;61.00;;;;;;4955447;28;20026;-74
2022/03/15 09:43:55;;;;;;;108.63;72.22;;;12.60;61.20;;;;;;4959292;28;20038;-76
2022/03/15 09:46:22;;;;;;;112.93;74.88;;;13.00;63.20;;;;;;4951449;28;20027;-74
2022/03/15 09:48:59;;;;;;;117.53;75.13;;;13.20;60.40;;;;;;4962206;28;20027;-73
2022/03/15 09:51:32;;;;;;;107.13;73.15;;;13.40;60.20;;;;;;4954673;28;20032;-74
2022/03/15 09:53:59;;;;;;;116.80;82.25;;;13.50;59.40;;;;;;4952243;28;20232;-73
2022/03/15 09:56:25;;;;;;;106.68;73.03;;;13.20;55.80;;;;;;4973888;28;20033;-77
2022/03/15 09:58:51;;;;;;;92.63;61.05;;;13.40;56.00;;;;;;4988354;28;20027;-75
2022/03/15 10:01:18;;;;;;;72.10;47.53;;;13.60;56.90;;;;;;4965285;28;20039;-77
2022/03/15 10:03:46;;;;;;;61.55;35.45;;;13.70;57.80;;;;;;4965763;28;20081;-77
2022/03/15 10:06:15;;;;;;;44.20;32.30;;;13.70;55.80;;;;;;4990898;28;20034;-76
2022/03/15 10:08:43;;;;;;;39.70;23.27;;;13.90;58.10;;;;;;4982669;28;20110;-76
2022/03/15 10:11:12;;;;;;;37.10;21.38;;;13.90;57.10;;;;;;4947904;28;20031;-74
2022/03/15 10:13:39;;;;;;;32.50;21.02;;;13.90;55.40;;;;;;4964319;28;20549;-71
2022/03/15 10:16:07;;;;;;;40.50;22.10;;;14.00;56.30;;;;;;4956281;28;20083;-73
2022/03/15 10:18:33;;;;;;;32.97;21.15;;;14.00;55.90;;;;;;4954372;28;20070;-72
2022/03/15 10:21:07;;;;;;;31.08;21.08;;;14.20;56.80;;;;;;4942061;28;20035;-70
2022/03/15 10:23:39;;;;;;;33.72;19.17;;;14.40;56.20;;;;;;4944892;28;20032;-73
2022/03/15 10:26:07;;;;;;;36.47;19.58;;;14.40;55.90;;;;;;4951317;28;20031;-74
2022/03/15 10:28:36;;;;;;;33.05;18.60;;;14.40;53.60;;;;;;4970543;28;20497;-73
2022/03/15 10:31:05;;;;;;;27.02;16.85;;;14.40;56.10;;;;;;4976934;28;20480;-73
2022/03/15 10:33:33;;;;;;;25.90;15.02;;;14.30;53.00;;;;;;4971335;28;20026;-74
2022/03/15 10:35:59;;;;;;;22.65;13.88;;;14.20;52.40;;;;;;4969831;28;20482;-75
2022/03/15 10:38:26;;;;;;;28.42;16.30;;;14.20;52.70;;;;;;4973502;28;20481;-75
2022/03/15 10:40:53;;;;;;;36.58;20.73;;;14.30;54.20;;;;;;4986302;28;20084;-75
2022/03/15 10:43:28;;;;;;;32.03;21.45;;;14.30;53.30;;;;;;4990671;28;20034;-75
2022/03/15 10:45:58;;;;;;;29.98;18.90;;;14.50;53.60;;;;;;4966890;28;20118;-75
2022/03/15 10:48:32;;;;;;;48.53;33.40;;;14.70;52.60;;;;;;4964472;28;20039;-74
2022/03/15 10:50:59;;;;;;;58.25;38.13;;;14.60;51.50;;;;;;4970672;28;20026;-73
2022/03/15 10:53:34;;;;;;;53.67;32.42;;;14.80;54.70;;;;;;4972603;28;20488;-71
2022/03/15 10:56:22;;;;;;;36.42;23.10;;;14.80;52.70;;;;;;4974271;28;20090;-72
2022/03/15 10:58:49;;;;;;;30.90;16.38;;;14.60;48.40;;;;;;4976014;28;20042;-73
2022/03/15 11:01:24;;;;;;;34.63;20.92;;;14.70;47.50;;;;;;4964124;28;20039;-70
2022/03/15 11:03:57;;;;;;;33.03;20.05;;;14.90;50.00;;;;;;4965827;28;20039;-74
2022/03/15 11:06:32;;;;;;;35.03;19.73;;;15.20;51.30;;;;;;4952132;29;20484;-74
2022/03/15 11:09:01;;;;;;;32.42;19.08;;;15.30;51.30;;;;;;4970336;28;20023;-73
2022/03/15 11:11:28;;;;;;;24.02;13.27;;;15.30;49.30;;;;;;4973712;28;20026;-75
2022/03/15 11:14:04;;;;;;;23.20;12.25;;;15.20;48.30;;;;;;4956499;28;20085;-75
2022/03/15 11:16:34;;;;;;;17.48;9.68;;;15.40;48.50;;;;;;4954515;29;20062;-74
2022/03/15 11:19:04;;;;;;;;;;;15.40;49.20;;;;;;4958447;28;20014;-76
2022/03/15 11:21:37;;;;;;;22.40;12.18;;;15.60;50.00;;;;;;4971776;28;19957;-73
2022/03/15 11:24:06;;;;;;;18.30;8.73;;;15.60;50.80;;;;;;4938719;29;20469;-74
2022/03/15 11:26:33;;;;;;;15.57;7.57;;;15.80;48.80;;;;;;4955959;28;20051;-73
2022/03/15 11:29:02;;;;;;;19.20;9.95;;;15.90;47.90;;;;;;4971565;28;20089;-75
2022/03/15 11:31:30;;;;;;;23.65;11.55;;;16.00;49.30;;;;;;4955635;28;20385;-74
2022/03/15 11:33:58;;;;;;;21.15;11.45;;;15.90;46.80;;;;;;4973267;28;20035;-75
2022/03/15 11:36:25;;;;;;;21.15;11.85;;;16.10;49.20;;;;;;4968956;28;20023;-74
2022/03/15 11:38:53;;;;;;;24.75;14.35;;;16.20;49.80;;;;;;4968383;28;20182;-72
2022/03/15 11:41:21;;;;;;;24.20;13.30;;;16.30;49.70;;;;;;4970179;28;20109;-72
2022/03/15 11:44:19;;;;;;;17.60;8.80;;;16.40;51.20;;;;;;4967426;28;20041;-72
2022/03/15 11:46:54;;;;;;;17.42;9.63;;;16.10;46.40;;;;;;4929479;29;20231;-73
2022/03/15 11:49:42;;;;;;;16.63;8.45;;;16.10;45.60;;;;;;4928841;29;20036;-75
2022/03/15 11:52:39;;;;;;;18.77;10.60;;;16.20;47.20;;;;;;4925969;29;20036;-74
2022/03/15 11:55:15;;;;;;;21.17;11.75;;;16.10;47.60;;;;;;4928641;29;20658;-72
2022/03/15 11:57:58;;;;;;;17.75;9.13;;;16.20;47.90;;;;;;4912135;29;20040;-70
2022/03/15 12:00:45;;;;;;;14.30;7.78;;;15.90;44.50;;;;;;4922799;29;20414;-73
2022/03/15 12:03:18;;;;;;;19.50;9.25;;;16.00;45.20;;;;;;4931319;29;20083;-73
2022/03/15 12:05:45;;;;;;;;;;;16.10;45.50;;;;;;4915506;29;20035;-74
2022/03/15 12:08:19;;;;;;;21.35;12.27;;;16.00;44.60;;;;;;4933535;29;19911;-73
2022/03/15 12:10:49;;;;;;;21.00;12.18;;;16.10;45.30;;;;;;4941398;29;20054;-73
2022/03/15 12:13:15;;;;;;;23.08;12.43;;;16.10;45.20;;;;;;4919819;29;20028;-71
2022/03/15 12:15:50;;;;;;;16.98;9.13;;;16.30;47.00;;;;;;4929605;29;20036;-73
2022/03/15 12:20:55;;;;;;;19.65;11.80;;;16.00;45.00;;;;;;4931866;29;20019;-73
2022/03/15 12:23:26;;;;;;;21.77;12.75;;;16.20;45.40;;;;;;4937559;29;20545;-72
2022/03/15 12:25:55;;;;;;;20.17;11.80;;;16.20;46.10;;;;;;4953902;29;20031;-73
2022/03/15 12:28:29;;;;;;;19.23;8.85;;;16.30;46.80;;;;;;4936962;29;20265;-73
2022/03/15 12:31:06;;;;;;;19.92;10.52;;;16.40;43.20;;;;;;4953625;28;20444;-72
2022/03/15 12:33:34;;;;;;;17.90;10.57;;;16.20;41.60;;;;;;4963538;29;20031;-72
2022/03/15 12:36:08;;;;;;;15.52;7.68;;;16.30;42.60;;;;;;4920199;29;20122;-71
2022/03/15 12:38:40;;;;;;;12.20;7.07;;;16.30;42.70;;;;;;4953068;29;20027;-73
2022/03/15 12:41:11;;;;;;;15.98;7.28;;;15.90;41.00;;;;;;4953192;29;20258;-72
2022/03/15 12:43:37;;;;;;;16.25;9.68;;;15.90;42.40;;;;;;4935739;29;20035;-71
2022/03/15 12:46:05;;;;;;;18.30;10.15;;;16.00;43.10;;;;;;4956807;29;20019;-72
2022/03/15 12:48:35;;;;;;;30.27;16.95;;;16.10;44.60;;;;;;4952642;29;20385;-73
2022/03/15 12:51:02;;;;;;;21.42;13.70;;;16.10;44.40;;;;;;4952281;29;20039;-73
2022/03/15 12:54:03;;;;;;;27.40;14.25;;;16.10;44.60;;;;;;4953219;29;20071;-73